sensor_id;sensor_type;location;lat;lon;timestamp;P1;durP1;ratioP1;P2;durP2;ratioP2
29196;SDS011;62796;42.654;23.316;2022-11-21T00:00:15;8.25;;;6.35;;
29196;SDS011;62796;42.654;23.316;2022-11-21T00:02:41;8.10;;;5.90;;
29196;SDS011;62796;42.654;23.316;2022-11-21T00:05:06;9.15;;;5.97;;
29196;SDS011;62796;42.654;23.316;2022-11-21T00:07:32;10.27;;;6.63;;
29196;SDS011;62796;42.654;23.316;2022-11-21T00:09:58;9.13;;;5.82;;
29196;SDS011;62796;42.654;23.316;2022-11-21T00:12:23;6.95;;;5.43;;
29196;SDS011;62796;42.654;23.316;2022-11-21T00:14:48;7.45;;;5.68;;
29196;SDS011;62796;42.654;23.316;2022-11-21T00:17:14;9.10;;;6.20;;
29196;SDS011;62796;42.654;23.316;2022-11-21T00:19:40;7.32;;;5.85;;
29196;SDS011;62796;42.654;23.316;2022-11-21T00:22:06;8.88;;;5.47;;
29196;SDS011;62796;42.654;23.316;2022-11-21T00:24:31;6.40;;;5.35;;
29196;SDS011;62796;42.654;23.316;2022-11-21T00:26:56;9.00;;;4.97;;
29196;SDS011;62796;42.654;23.316;2022-11-21T00:29:22;6.22;;;4.72;;
29196;SDS011;62796;42.654;23.316;2022-11-21T00:31:47;8.73;;;5.50;;
29196;SDS011;62796;42.654;23.316;2022-11-21T00:34:13;7.32;;;4.90;;
29196;SDS011;62796;42.654;23.316;2022-11-21T00:36:39;6.80;;;5.43;;
29196;SDS011;62796;42.654;23.316;2022-11-21T00:39:05;8.32;;;5.97;;
29196;SDS011;62796;42.654;23.316;2022-11-21T00:41:30;9.32;;;5.90;;
29196;SDS011;62796;42.654;23.316;2022-11-21T00:43:55;7.75;;;6.03;;
29196;SDS011;62796;42.654;23.316;2022-11-21T00:46:21;8.25;;;6.00;;
29196;SDS011;62796;42.654;23.316;2022-11-21T00:48:46;8.18;;;6.00;;
29196;SDS011;62796;42.654;23.316;2022-11-21T00:51:12;11.60;;;6.38;;
29196;SDS011;62796;42.654;23.316;2022-11-21T00:53:37;9.95;;;6.78;;
29196;SDS011;62796;42.654;23.316;2022-11-21T00:56:02;9.57;;;6.57;;
29196;SDS011;62796;42.654;23.316;2022-11-21T00:58:28;11.30;;;6.97;;
29196;SDS011;62796;42.654;23.316;2022-11-21T01:01:07;10.50;;;6.93;;
29196;SDS011;62796;42.654;23.316;2022-11-21T01:03:34;7.90;;;5.80;;
29196;SDS011;62796;42.654;23.316;2022-11-21T01:06:01;10.80;;;7.78;;
29196;SDS011;62796;42.654;23.316;2022-11-21T01:08:28;9.57;;;5.82;;
29196;SDS011;62796;42.654;23.316;2022-11-21T01:10:53;9.45;;;5.82;;
29196;SDS011;62796;42.654;23.316;2022-11-21T01:13:19;6.88;;;5.47;;
29196;SDS011;62796;42.654;23.316;2022-11-21T01:15:44;7.68;;;5.30;;
29196;SDS011;62796;42.654;23.316;2022-11-21T01:18:09;7.07;;;5.20;;
29196;SDS011;62796;42.654;23.316;2022-11-21T01:20:37;7.95;;;5.32;;
29196;SDS011;62796;42.654;23.316;2022-11-21T01:23:06;8.32;;;5.82;;
29196;SDS011;62796;42.654;23.316;2022-11-21T01:25:34;10.30;;;5.60;;
29196;SDS011;62796;42.654;23.316;2022-11-21T01:28:00;7.07;;;5.03;;
29196;SDS011;62796;42.654;23.316;2022-11-21T01:30:26;8.20;;;4.85;;
29196;SDS011;62796;42.654;23.316;2022-11-21T01:32:51;8.43;;;5.03;;
29196;SDS011;62796;42.654;23.316;2022-11-21T01:35:17;5.90;;;4.63;;
29196;SDS011;62796;42.654;23.316;2022-11-21T01:37:45;7.28;;;4.93;;
29196;SDS011;62796;42.654;23.316;2022-11-21T01:40:12;7.25;;;4.95;;
29196;SDS011;62796;42.654;23.316;2022-11-21T01:53:59;6.60;;;4.38;;
29196;SDS011;62796;42.654;23.316;2022-11-21T01:59:43;9.40;;;5.70;;
29196;SDS011;62796;42.654;23.316;2022-11-21T02:02:07;7.65;;;5.65;;
29196;SDS011;62796;42.654;23.316;2022-11-21T02:04:34;9.27;;;5.72;;
29196;SDS011;62796;42.654;23.316;2022-11-21T02:07:03;8.10;;;5.05;;
29196;SDS011;62796;42.654;23.316;2022-11-21T02:09:31;8.73;;;5.38;;
29196;SDS011;62796;42.654;23.316;2022-11-21T02:12:00;9.45;;;5.80;;
29196;SDS011;62796;42.654;23.316;2022-11-21T02:14:38;6.63;;;5.22;;
29196;SDS011;62796;42.654;23.316;2022-11-21T02:17:06;8.77;;;4.10;;
29196;SDS011;62796;42.654;23.316;2022-11-21T02:22:10;11.27;;;4.93;;
29196;SDS011;62796;42.654;23.316;2022-11-21T02:24:45;5.43;;;3.33;;
29196;SDS011;62796;42.654;23.316;2022-11-21T02:27:13;12.35;;;4.95;;
29196;SDS011;62796;42.654;23.316;2022-11-21T02:29:40;7.38;;;3.85;;
29196;SDS011;62796;42.654;23.316;2022-11-21T02:32:05;4.82;;;3.08;;
29196;SDS011;62796;42.654;23.316;2022-11-21T02:34:31;7.05;;;3.78;;
29196;SDS011;62796;42.654;23.316;2022-11-21T02:36:58;9.40;;;4.18;;
29196;SDS011;62796;42.654;23.316;2022-11-21T02:39:29;9.18;;;5.72;;
29196;SDS011;62796;42.654;23.316;2022-11-21T02:42:04;8.20;;;5.13;;
29196;SDS011;62796;42.654;23.316;2022-11-21T02:44:49;6.32;;;5.10;;
29196;SDS011;62796;42.654;23.316;2022-11-21T02:47:21;8.23;;;5.22;;
29196;SDS011;62796;42.654;23.316;2022-11-21T02:50:00;8.35;;;5.30;;
29196;SDS011;62796;42.654;23.316;2022-11-21T02:52:33;12.32;;;7.07;;
29196;SDS011;62796;42.654;23.316;2022-11-21T02:54:58;12.18;;;6.57;;
29196;SDS011;62796;42.654;23.316;2022-11-21T02:57:23;8.82;;;5.15;;
29196;SDS011;62796;42.654;23.316;2022-11-21T02:59:49;10.05;;;5.00;;
29196;SDS011;62796;42.654;23.316;2022-11-21T03:02:14;8.35;;;4.57;;
29196;SDS011;62796;42.654;23.316;2022-11-21T03:04:39;7.25;;;3.92;;
29196;SDS011;62796;42.654;23.316;2022-11-21T03:07:05;6.70;;;3.08;;
29196;SDS011;62796;42.654;23.316;2022-11-21T03:09:30;4.57;;;2.20;;
29196;SDS011;62796;42.654;23.316;2022-11-21T03:11:56;3.75;;;2.33;;
29196;SDS011;62796;42.654;23.316;2022-11-21T03:14:21;3.17;;;2.03;;
29196;SDS011;62796;42.654;23.316;2022-11-21T03:16:46;7.50;;;2.83;;
29196;SDS011;62796;42.654;23.316;2022-11-21T03:19:12;5.60;;;3.10;;
29196;SDS011;62796;42.654;23.316;2022-11-21T03:21:37;6.32;;;3.55;;
29196;SDS011;62796;42.654;23.316;2022-11-21T03:24:03;5.95;;;3.63;;
29196;SDS011;62796;42.654;23.316;2022-11-21T03:26:29;7.18;;;2.30;;
29196;SDS011;62796;42.654;23.316;2022-11-21T03:28:54;6.30;;;2.05;;
29196;SDS011;62796;42.654;23.316;2022-11-21T03:31:19;8.63;;;3.05;;
29196;SDS011;62796;42.654;23.316;2022-11-21T03:33:45;6.13;;;3.05;;
29196;SDS011;62796;42.654;23.316;2022-11-21T03:36:10;5.85;;;2.75;;
29196;SDS011;62796;42.654;23.316;2022-11-21T03:38:35;9.68;;;2.20;;
29196;SDS011;62796;42.654;23.316;2022-11-21T03:41:04;7.30;;;2.08;;
29196;SDS011;62796;42.654;23.316;2022-11-21T03:43:50;5.18;;;1.42;;
29196;SDS011;62796;42.654;23.316;2022-11-21T03:46:15;4.35;;;1.38;;
29196;SDS011;62796;42.654;23.316;2022-11-21T03:48:40;5.88;;;1.63;;
29196;SDS011;62796;42.654;23.316;2022-11-21T03:51:06;3.42;;;1.10;;
29196;SDS011;62796;42.654;23.316;2022-11-21T03:53:31;5.28;;;1.23;;
29196;SDS011;62796;42.654;23.316;2022-11-21T03:55:56;6.82;;;1.15;;
29196;SDS011;62796;42.654;23.316;2022-11-21T03:58:22;4.57;;;1.17;;
29196;SDS011;62796;42.654;23.316;2022-11-21T04:00:47;3.05;;;1.00;;
29196;SDS011;62796;42.654;23.316;2022-11-21T04:03:13;3.40;;;0.88;;
29196;SDS011;62796;42.654;23.316;2022-11-21T04:05:38;4.10;;;1.20;;
29196;SDS011;62796;42.654;23.316;2022-11-21T04:08:03;5.95;;;1.10;;
29196;SDS011;62796;42.654;23.316;2022-11-21T04:10:29;4.68;;;1.25;;
29196;SDS011;62796;42.654;23.316;2022-11-21T04:12:54;3.08;;;0.88;;
29196;SDS011;62796;42.654;23.316;2022-11-21T04:15:20;4.55;;;1.30;;
29196;SDS011;62796;42.654;23.316;2022-11-21T04:17:45;4.47;;;0.93;;
29196;SDS011;62796;42.654;23.316;2022-11-21T04:20:10;6.97;;;1.70;;
29196;SDS011;62796;42.654;23.316;2022-11-21T04:22:36;5.13;;;1.20;;
29196;SDS011;62796;42.654;23.316;2022-11-21T04:25:01;3.33;;;0.70;;
29196;SDS011;62796;42.654;23.316;2022-11-21T04:27:27;4.00;;;1.08;;
29196;SDS011;62796;42.654;23.316;2022-11-21T04:29:52;4.57;;;0.90;;
29196;SDS011;62796;42.654;23.316;2022-11-21T04:32:18;3.17;;;1.35;;
29196;SDS011;62796;42.654;23.316;2022-11-21T04:34:43;2.70;;;0.88;;
29196;SDS011;62796;42.654;23.316;2022-11-21T04:37:08;3.08;;;1.20;;
29196;SDS011;62796;42.654;23.316;2022-11-21T04:39:34;2.10;;;1.00;;
29196;SDS011;62796;42.654;23.316;2022-11-21T04:41:59;4.50;;;1.30;;
29196;SDS011;62796;42.654;23.316;2022-11-21T04:44:25;6.68;;;0.90;;
29196;SDS011;62796;42.654;23.316;2022-11-21T04:46:50;3.25;;;1.15;;
29196;SDS011;62796;42.654;23.316;2022-11-21T04:49:17;3.47;;;0.88;;
29196;SDS011;62796;42.654;23.316;2022-11-21T04:51:42;3.55;;;0.73;;
29196;SDS011;62796;42.654;23.316;2022-11-21T04:54:09;2.03;;;0.70;;
29196;SDS011;62796;42.654;23.316;2022-11-21T04:56:35;4.57;;;0.82;;
29196;SDS011;62796;42.654;23.316;2022-11-21T04:59:01;4.95;;;1.65;;
29196;SDS011;62796;42.654;23.316;2022-11-21T05:01:26;7.13;;;1.95;;
29196;SDS011;62796;42.654;23.316;2022-11-21T05:03:51;5.22;;;2.13;;
29196;SDS011;62796;42.654;23.316;2022-11-21T05:06:17;6.55;;;3.00;;
29196;SDS011;62796;42.654;23.316;2022-11-21T05:08:42;5.10;;;2.10;;
29196;SDS011;62796;42.654;23.316;2022-11-21T05:11:08;6.05;;;2.65;;
29196;SDS011;62796;42.654;23.316;2022-11-21T05:13:52;5.78;;;2.53;;
29196;SDS011;62796;42.654;23.316;2022-11-21T05:16:18;6.80;;;2.47;;
29196;SDS011;62796;42.654;23.316;2022-11-21T05:18:43;4.80;;;1.23;;
29196;SDS011;62796;42.654;23.316;2022-11-21T05:21:09;4.90;;;1.88;;
29196;SDS011;62796;42.654;23.316;2022-11-21T05:23:34;4.70;;;1.42;;
29196;SDS011;62796;42.654;23.316;2022-11-21T05:26:00;5.18;;;2.20;;
29196;SDS011;62796;42.654;23.316;2022-11-21T05:28:26;5.70;;;1.80;;
29196;SDS011;62796;42.654;23.316;2022-11-21T05:30:51;3.30;;;1.48;;
29196;SDS011;62796;42.654;23.316;2022-11-21T05:33:17;6.47;;;1.73;;
29196;SDS011;62796;42.654;23.316;2022-11-21T05:35:43;2.78;;;1.77;;
29196;SDS011;62796;42.654;23.316;2022-11-21T05:38:08;3.53;;;1.48;;
29196;SDS011;62796;42.654;23.316;2022-11-21T05:40:33;6.90;;;2.03;;
29196;SDS011;62796;42.654;23.316;2022-11-21T05:42:59;7.55;;;1.95;;
29196;SDS011;62796;42.654;23.316;2022-11-21T05:45:43;5.47;;;1.80;;
29196;SDS011;62796;42.654;23.316;2022-11-21T05:48:08;6.22;;;1.80;;
29196;SDS011;62796;42.654;23.316;2022-11-21T05:50:36;4.32;;;1.92;;
29196;SDS011;62796;42.654;23.316;2022-11-21T05:53:02;3.97;;;1.70;;
29196;SDS011;62796;42.654;23.316;2022-11-21T05:55:29;7.10;;;1.60;;
29196;SDS011;62796;42.654;23.316;2022-11-21T05:57:56;9.60;;;2.42;;
29196;SDS011;62796;42.654;23.316;2022-11-21T06:00:22;9.13;;;2.33;;
29196;SDS011;62796;42.654;23.316;2022-11-21T06:02:48;8.18;;;2.05;;
29196;SDS011;62796;42.654;23.316;2022-11-21T06:05:32;5.00;;;1.63;;
29196;SDS011;62796;42.654;23.316;2022-11-21T06:07:58;3.88;;;1.30;;
29196;SDS011;62796;42.654;23.316;2022-11-21T06:10:23;6.18;;;1.58;;
29196;SDS011;62796;42.654;23.316;2022-11-21T06:12:48;3.72;;;1.20;;
29196;SDS011;62796;42.654;23.316;2022-11-21T06:15:14;2.65;;;1.10;;
29196;SDS011;62796;42.654;23.316;2022-11-21T06:17:39;1.30;;;0.85;;
29196;SDS011;62796;42.654;23.316;2022-11-21T06:20:05;2.63;;;1.10;;
29196;SDS011;62796;42.654;23.316;2022-11-21T06:22:31;2.00;;;1.25;;
29196;SDS011;62796;42.654;23.316;2022-11-21T06:24:56;1.85;;;1.00;;
29196;SDS011;62796;42.654;23.316;2022-11-21T06:27:22;2.20;;;1.50;;
29196;SDS011;62796;42.654;23.316;2022-11-21T06:29:47;3.85;;;1.08;;
29196;SDS011;62796;42.654;23.316;2022-11-21T06:32:12;1.58;;;1.35;;
29196;SDS011;62796;42.654;23.316;2022-11-21T06:34:38;2.33;;;1.80;;
29196;SDS011;62796;42.654;23.316;2022-11-21T06:37:03;2.72;;;1.70;;
29196;SDS011;62796;42.654;23.316;2022-11-21T06:39:28;4.03;;;1.77;;
29196;SDS011;62796;42.654;23.316;2022-11-21T06:41:54;4.47;;;2.42;;
29196;SDS011;62796;42.654;23.316;2022-11-21T06:44:19;2.03;;;1.63;;
29196;SDS011;62796;42.654;23.316;2022-11-21T06:46:45;3.75;;;1.42;;
29196;SDS011;62796;42.654;23.316;2022-11-21T06:49:10;3.05;;;1.25;;
29196;SDS011;62796;42.654;23.316;2022-11-21T06:51:36;3.05;;;1.40;;
29196;SDS011;62796;42.654;23.316;2022-11-21T06:54:01;2.58;;;1.38;;
29196;SDS011;62796;42.654;23.316;2022-11-21T06:56:28;2.67;;;1.60;;
29196;SDS011;62796;42.654;23.316;2022-11-21T06:58:54;3.22;;;1.15;;
29196;SDS011;62796;42.654;23.316;2022-11-21T07:01:21;1.63;;;1.10;;
29196;SDS011;62796;42.654;23.316;2022-11-21T07:03:47;2.50;;;1.38;;
29196;SDS011;62796;42.654;23.316;2022-11-21T07:06:12;2.35;;;1.33;;
29196;SDS011;62796;42.654;23.316;2022-11-21T07:08:38;1.20;;;1.10;;
29196;SDS011;62796;42.654;23.316;2022-11-21T07:11:09;1.40;;;1.00;;
29196;SDS011;62796;42.654;23.316;2022-11-21T07:13:35;2.78;;;1.67;;
29196;SDS011;62796;42.654;23.316;2022-11-21T07:16:02;3.53;;;1.30;;
29196;SDS011;62796;42.654;23.316;2022-11-21T07:18:32;2.15;;;1.42;;
29196;SDS011;62796;42.654;23.316;2022-11-21T07:20:58;3.03;;;1.73;;
29196;SDS011;62796;42.654;23.316;2022-11-21T07:23:25;3.60;;;1.95;;
29196;SDS011;62796;42.654;23.316;2022-11-21T07:25:51;2.97;;;1.90;;
29196;SDS011;62796;42.654;23.316;2022-11-21T07:28:16;2.83;;;1.67;;
29196;SDS011;62796;42.654;23.316;2022-11-21T07:30:42;3.97;;;1.33;;
29196;SDS011;62796;42.654;23.316;2022-11-21T07:33:07;3.95;;;1.73;;
29196;SDS011;62796;42.654;23.316;2022-11-21T07:35:33;5.45;;;2.08;;
29196;SDS011;62796;42.654;23.316;2022-11-21T07:38:00;5.93;;;2.30;;
29196;SDS011;62796;42.654;23.316;2022-11-21T07:40:26;4.72;;;2.00;;
29196;SDS011;62796;42.654;23.316;2022-11-21T07:42:52;4.75;;;2.50;;
29196;SDS011;62796;42.654;23.316;2022-11-21T07:45:18;4.72;;;2.25;;
29196;SDS011;62796;42.654;23.316;2022-11-21T07:47:44;5.15;;;2.28;;
29196;SDS011;62796;42.654;23.316;2022-11-21T07:50:10;2.60;;;1.88;;
29196;SDS011;62796;42.654;23.316;2022-11-21T07:52:36;4.03;;;2.70;;
29196;SDS011;62796;42.654;23.316;2022-11-21T07:55:02;6.78;;;3.45;;
29196;SDS011;62796;42.654;23.316;2022-11-21T07:57:29;4.13;;;2.30;;
29196;SDS011;62796;42.654;23.316;2022-11-21T07:59:56;3.17;;;1.75;;
29196;SDS011;62796;42.654;23.316;2022-11-21T08:02:23;5.25;;;3.08;;
29196;SDS011;62796;42.654;23.316;2022-11-21T08:04:50;7.38;;;4.18;;
29196;SDS011;62796;42.654;23.316;2022-11-21T08:07:16;3.95;;;2.30;;
29196;SDS011;62796;42.654;23.316;2022-11-21T08:09:43;3.78;;;2.80;;
29196;SDS011;62796;42.654;23.316;2022-11-21T08:12:09;3.55;;;2.20;;
29196;SDS011;62796;42.654;23.316;2022-11-21T08:14:35;4.03;;;2.60;;
29196;SDS011;62796;42.654;23.316;2022-11-21T08:17:01;4.75;;;3.03;;
29196;SDS011;62796;42.654;23.316;2022-11-21T08:19:27;4.28;;;2.92;;
29196;SDS011;62796;42.654;23.316;2022-11-21T08:21:53;4.95;;;3.30;;
29196;SDS011;62796;42.654;23.316;2022-11-21T08:24:18;4.22;;;3.00;;
29196;SDS011;62796;42.654;23.316;2022-11-21T08:26:44;3.83;;;2.15;;
29196;SDS011;62796;42.654;23.316;2022-11-21T08:29:10;5.85;;;2.78;;
29196;SDS011;62796;42.654;23.316;2022-11-21T08:31:37;5.35;;;1.98;;
29196;SDS011;62796;42.654;23.316;2022-11-21T08:34:02;3.88;;;1.95;;
29196;SDS011;62796;42.654;23.316;2022-11-21T08:36:28;5.85;;;2.97;;
29196;SDS011;62796;42.654;23.316;2022-11-21T08:38:53;7.30;;;2.47;;
29196;SDS011;62796;42.654;23.316;2022-11-21T08:41:19;8.35;;;2.15;;
29196;SDS011;62796;42.654;23.316;2022-11-21T08:44:03;3.55;;;1.70;;
29196;SDS011;62796;42.654;23.316;2022-11-21T08:46:29;3.42;;;2.33;;
29196;SDS011;62796;42.654;23.316;2022-11-21T08:48:57;5.95;;;2.50;;
29196;SDS011;62796;42.654;23.316;2022-11-21T08:51:23;16.35;;;3.25;;
29196;SDS011;62796;42.654;23.316;2022-11-21T08:53:49;6.38;;;2.45;;
29196;SDS011;62796;42.654;23.316;2022-11-21T08:56:14;7.93;;;3.67;;
29196;SDS011;62796;42.654;23.316;2022-11-21T08:58:40;3.55;;;2.33;;
29196;SDS011;62796;42.654;23.316;2022-11-21T09:01:06;7.28;;;2.83;;
29196;SDS011;62796;42.654;23.316;2022-11-21T09:03:31;7.50;;;2.40;;
29196;SDS011;62796;42.654;23.316;2022-11-21T09:05:59;4.90;;;2.58;;
29196;SDS011;62796;42.654;23.316;2022-11-21T09:08:25;7.00;;;1.85;;
29196;SDS011;62796;42.654;23.316;2022-11-21T09:10:51;3.42;;;1.92;;
29196;SDS011;62796;42.654;23.316;2022-11-21T09:13:16;6.53;;;2.50;;
29196;SDS011;62796;42.654;23.316;2022-11-21T09:15:42;3.92;;;1.92;;
29196;SDS011;62796;42.654;23.316;2022-11-21T09:18:26;3.25;;;1.45;;
29196;SDS011;62796;42.654;23.316;2022-11-21T09:20:51;2.95;;;1.65;;
29196;SDS011;62796;42.654;23.316;2022-11-21T09:23:17;6.90;;;2.28;;
29196;SDS011;62796;42.654;23.316;2022-11-21T09:25:43;8.27;;;2.17;;
29196;SDS011;62796;42.654;23.316;2022-11-21T09:28:09;4.28;;;2.10;;
29196;SDS011;62796;42.654;23.316;2022-11-21T09:30:36;4.72;;;1.98;;
29196;SDS011;62796;42.654;23.316;2022-11-21T09:33:03;6.90;;;2.15;;
29196;SDS011;62796;42.654;23.316;2022-11-21T09:35:30;4.20;;;2.20;;
29196;SDS011;62796;42.654;23.316;2022-11-21T09:37:56;8.85;;;2.90;;
29196;SDS011;62796;42.654;23.316;2022-11-21T09:40:21;6.63;;;2.50;;
29196;SDS011;62796;42.654;23.316;2022-11-21T09:45:36;5.43;;;2.72;;
29196;SDS011;62796;42.654;23.316;2022-11-21T09:48:08;3.45;;;2.50;;
29196;SDS011;62796;42.654;23.316;2022-11-21T09:50:38;5.40;;;3.20;;
29196;SDS011;62796;42.654;23.316;2022-11-21T09:53:30;5.03;;;2.60;;
29196;SDS011;62796;42.654;23.316;2022-11-21T09:56:00;4.97;;;2.90;;
29196;SDS011;62796;42.654;23.316;2022-11-21T10:00:58;4.88;;;2.50;;
29196;SDS011;62796;42.654;23.316;2022-11-21T10:03:25;7.53;;;3.33;;
29196;SDS011;62796;42.654;23.316;2022-11-21T10:06:04;6.10;;;3.55;;
29196;SDS011;62796;42.654;23.316;2022-11-21T10:14:14;6.35;;;4.40;;
29196;SDS011;62796;42.654;23.316;2022-11-21T10:19:47;12.32;;;4.22;;
29196;SDS011;62796;42.654;23.316;2022-11-21T10:25:29;6.82;;;4.28;;
29196;SDS011;62796;42.654;23.316;2022-11-21T10:28:06;4.80;;;3.90;;
29196;SDS011;62796;42.654;23.316;2022-11-21T10:30:32;6.40;;;4.40;;
29196;SDS011;62796;42.654;23.316;2022-11-21T10:33:02;8.50;;;4.95;;
29196;SDS011;62796;42.654;23.316;2022-11-21T10:40:50;3.95;;;3.55;;
29196;SDS011;62796;42.654;23.316;2022-11-21T10:46:21;9.23;;;4.88;;
29196;SDS011;62796;42.654;23.316;2022-11-21T10:49:00;5.47;;;4.30;;
29196;SDS011;62796;42.654;23.316;2022-11-21T10:51:41;6.88;;;4.70;;
29196;SDS011;62796;42.654;23.316;2022-11-21T10:54:12;5.60;;;4.30;;
29196;SDS011;62796;42.654;23.316;2022-11-21T10:57:12;7.10;;;4.65;;
29196;SDS011;62796;42.654;23.316;2022-11-21T10:59:54;6.35;;;4.78;;
29196;SDS011;62796;42.654;23.316;2022-11-21T11:02:26;4.90;;;4.00;;
29196;SDS011;62796;42.654;23.316;2022-11-21T11:07:40;6.90;;;4.25;;
29196;SDS011;62796;42.654;23.316;2022-11-21T11:10:14;4.78;;;4.15;;
29196;SDS011;62796;42.654;23.316;2022-11-21T11:12:49;8.07;;;4.80;;
29196;SDS011;62796;42.654;23.316;2022-11-21T11:15:34;7.55;;;4.95;;
29196;SDS011;62796;42.654;23.316;2022-11-21T11:18:03;20.02;;;6.38;;
29196;SDS011;62796;42.654;23.316;2022-11-21T11:20:40;9.80;;;5.25;;
29196;SDS011;62796;42.654;23.316;2022-11-21T11:23:14;9.88;;;5.30;;
29196;SDS011;62796;42.654;23.316;2022-11-21T11:25:43;13.45;;;5.32;;
29196;SDS011;62796;42.654;23.316;2022-11-21T11:28:32;6.82;;;4.45;;
29196;SDS011;62796;42.654;23.316;2022-11-21T11:30:59;11.60;;;4.80;;
29196;SDS011;62796;42.654;23.316;2022-11-21T11:33:29;12.88;;;5.75;;
29196;SDS011;62796;42.654;23.316;2022-11-21T11:36:13;22.38;;;7.57;;
29196;SDS011;62796;42.654;23.316;2022-11-21T11:38:57;13.60;;;6.35;;
29196;SDS011;62796;42.654;23.316;2022-11-21T11:44:20;9.23;;;5.28;;
29196;SDS011;62796;42.654;23.316;2022-11-21T11:47:26;8.40;;;5.60;;
29196;SDS011;62796;42.654;23.316;2022-11-21T11:50:02;11.75;;;6.47;;
29196;SDS011;62796;42.654;23.316;2022-11-21T11:53:00;14.82;;;8.07;;
29196;SDS011;62796;42.654;23.316;2022-11-21T12:03:43;8.30;;;4.82;;
29196;SDS011;62796;42.654;23.316;2022-11-21T12:06:20;9.13;;;4.22;;
29196;SDS011;62796;42.654;23.316;2022-11-21T12:08:53;10.00;;;4.50;;
29196;SDS011;62796;42.654;23.316;2022-11-21T12:11:33;7.68;;;4.75;;
29196;SDS011;62796;42.654;23.316;2022-11-21T12:23:24;11.10;;;6.32;;
29196;SDS011;62796;42.654;23.316;2022-11-21T12:25:58;11.35;;;6.55;;
29196;SDS011;62796;42.654;23.316;2022-11-21T12:28:57;10.13;;;6.75;;
29196;SDS011;62796;42.654;23.316;2022-11-21T12:36:59;10.93;;;4.32;;
29196;SDS011;62796;42.654;23.316;2022-11-21T12:57:14;5.60;;;4.30;;
29196;SDS011;62796;42.654;23.316;2022-11-21T13:05:02;9.02;;;7.13;;
29196;SDS011;62796;42.654;23.316;2022-11-21T13:07:33;7.38;;;5.78;;
29196;SDS011;62796;42.654;23.316;2022-11-21T13:09:59;7.45;;;4.72;;
29196;SDS011;62796;42.654;23.316;2022-11-21T13:20:19;8.70;;;4.25;;
29196;SDS011;62796;42.654;23.316;2022-11-21T13:22:54;6.72;;;5.03;;
29196;SDS011;62796;42.654;23.316;2022-11-21T13:28:40;6.63;;;4.57;;
29196;SDS011;62796;42.654;23.316;2022-11-21T13:30:47;8.05;;;6.28;;
29196;SDS011;62796;42.654;23.316;2022-11-21T13:52:24;7.00;;;5.72;;
29196;SDS011;62796;42.654;23.316;2022-11-21T14:08:29;7.70;;;6.10;;
29196;SDS011;62796;42.654;23.316;2022-11-21T14:10:55;8.50;;;6.00;;
29196;SDS011;62796;42.654;23.316;2022-11-21T14:18:52;12.63;;;6.60;;
29196;SDS011;62796;42.654;23.316;2022-11-21T14:21:19;9.02;;;6.93;;
29196;SDS011;62796;42.654;23.316;2022-11-21T14:23:51;8.85;;;6.68;;
29196;SDS011;62796;42.654;23.316;2022-11-21T14:26:21;11.02;;;7.15;;
29196;SDS011;62796;42.654;23.316;2022-11-21T14:28:49;11.85;;;7.65;;
29196;SDS011;62796;42.654;23.316;2022-11-21T14:31:16;11.38;;;7.32;;
29196;SDS011;62796;42.654;23.316;2022-11-21T14:36:14;7.68;;;6.85;;
29196;SDS011;62796;42.654;23.316;2022-11-21T14:38:59;12.43;;;7.15;;
29196;SDS011;62796;42.654;23.316;2022-11-21T14:41:34;12.52;;;8.23;;
29196;SDS011;62796;42.654;23.316;2022-11-21T14:49:16;14.07;;;8.32;;
29196;SDS011;62796;42.654;23.316;2022-11-21T14:51:45;9.32;;;7.53;;
29196;SDS011;62796;42.654;23.316;2022-11-21T14:54:13;11.98;;;6.88;;
29196;SDS011;62796;42.654;23.316;2022-11-21T14:57:01;10.48;;;7.05;;
29196;SDS011;62796;42.654;23.316;2022-11-21T14:59:32;11.50;;;8.05;;
29196;SDS011;62796;42.654;23.316;2022-11-21T15:02:10;13.80;;;7.68;;
29196;SDS011;62796;42.654;23.316;2022-11-21T15:04:41;10.00;;;7.53;;
29196;SDS011;62796;42.654;23.316;2022-11-21T15:07:18;11.73;;;8.82;;
29196;SDS011;62796;42.654;23.316;2022-11-21T15:09:43;10.18;;;7.78;;
29196;SDS011;62796;42.654;23.316;2022-11-21T15:12:09;8.00;;;6.35;;
29196;SDS011;62796;42.654;23.316;2022-11-21T15:14:51;9.15;;;6.65;;
29196;SDS011;62796;42.654;23.316;2022-11-21T15:17:23;7.38;;;5.72;;
29196;SDS011;62796;42.654;23.316;2022-11-21T15:22:38;9.90;;;6.85;;
29196;SDS011;62796;42.654;23.316;2022-11-21T15:25:16;9.25;;;7.10;;
29196;SDS011;62796;42.654;23.316;2022-11-21T15:27:45;7.95;;;6.47;;
29196;SDS011;62796;42.654;23.316;2022-11-21T15:30:33;9.80;;;6.78;;
29196;SDS011;62796;42.654;23.316;2022-11-21T15:38:14;11.45;;;8.68;;
29196;SDS011;62796;42.654;23.316;2022-11-21T15:43:32;10.75;;;7.80;;
29196;SDS011;62796;42.654;23.316;2022-11-21T15:46:04;9.15;;;6.97;;
29196;SDS011;62796;42.654;23.316;2022-11-21T15:48:37;10.73;;;8.27;;
29196;SDS011;62796;42.654;23.316;2022-11-21T15:51:03;11.05;;;8.75;;
29196;SDS011;62796;42.654;23.316;2022-11-21T15:53:28;12.45;;;8.85;;
29196;SDS011;62796;42.654;23.316;2022-11-21T15:55:54;10.73;;;8.07;;
29196;SDS011;62796;42.654;23.316;2022-11-21T15:58:19;13.10;;;8.70;;
29196;SDS011;62796;42.654;23.316;2022-11-21T16:00:45;12.07;;;8.73;;
29196;SDS011;62796;42.654;23.316;2022-11-21T16:03:10;12.38;;;9.30;;
29196;SDS011;62796;42.654;23.316;2022-11-21T16:05:36;9.90;;;8.35;;
29196;SDS011;62796;42.654;23.316;2022-11-21T16:08:03;11.95;;;7.97;;
29196;SDS011;62796;42.654;23.316;2022-11-21T16:10:29;12.07;;;8.40;;
29196;SDS011;62796;42.654;23.316;2022-11-21T16:12:54;10.38;;;8.88;;
29196;SDS011;62796;42.654;23.316;2022-11-21T16:15:20;13.13;;;9.65;;
29196;SDS011;62796;42.654;23.316;2022-11-21T16:17:45;15.02;;;9.48;;
29196;SDS011;62796;42.654;23.316;2022-11-21T16:20:11;12.27;;;8.45;;
29196;SDS011;62796;42.654;23.316;2022-11-21T16:22:37;13.52;;;8.00;;
29196;SDS011;62796;42.654;23.316;2022-11-21T16:25:02;14.02;;;9.30;;
29196;SDS011;62796;42.654;23.316;2022-11-21T16:27:28;13.30;;;8.73;;
29196;SDS011;62796;42.654;23.316;2022-11-21T16:29:53;10.32;;;7.82;;
29196;SDS011;62796;42.654;23.316;2022-11-21T16:32:18;12.88;;;7.30;;
29196;SDS011;62796;42.654;23.316;2022-11-21T16:34:44;10.35;;;6.88;;
29196;SDS011;62796;42.654;23.316;2022-11-21T16:37:09;9.13;;;6.85;;
29196;SDS011;62796;42.654;23.316;2022-11-21T16:39:35;7.88;;;6.10;;
29196;SDS011;62796;42.654;23.316;2022-11-21T16:42:00;8.23;;;6.20;;
29196;SDS011;62796;42.654;23.316;2022-11-21T16:44:27;8.90;;;6.82;;
29196;SDS011;62796;42.654;23.316;2022-11-21T16:46:54;7.93;;;6.40;;
29196;SDS011;62796;42.654;23.316;2022-11-21T16:49:20;8.23;;;6.60;;
29196;SDS011;62796;42.654;23.316;2022-11-21T16:51:47;6.53;;;5.72;;
29196;SDS011;62796;42.654;23.316;2022-11-21T16:54:13;11.18;;;6.90;;
29196;SDS011;62796;42.654;23.316;2022-11-21T16:56:39;11.60;;;7.30;;
29196;SDS011;62796;42.654;23.316;2022-11-21T16:59:04;9.30;;;6.50;;
29196;SDS011;62796;42.654;23.316;2022-11-21T17:01:29;8.55;;;6.65;;
29196;SDS011;62796;42.654;23.316;2022-11-21T17:03:55;10.95;;;8.00;;
29196;SDS011;62796;42.654;23.316;2022-11-21T17:06:22;10.48;;;8.40;;
29196;SDS011;62796;42.654;23.316;2022-11-21T17:08:49;10.90;;;8.00;;
29196;SDS011;62796;42.654;23.316;2022-11-21T17:13:40;11.32;;;8.52;;
29196;SDS011;62796;42.654;23.316;2022-11-21T17:16:07;10.07;;;7.53;;
29196;SDS011;62796;42.654;23.316;2022-11-21T17:18:33;8.45;;;7.53;;
29196;SDS011;62796;42.654;23.316;2022-11-21T17:21:01;9.70;;;7.53;;